Time,TemperatureF,DewpointF,PressureIn,WindDirection,WindDirectionDegrees,WindSpeedMPH,WindSpeedGustMPH,Humidity,HourlyPrecipIn,Conditions,Clouds,dailyrainin,SoftwareType,DateUTC
2013-02-07 00:03:00,30.3,25.2,29.99,NW,315,0.0,0.0,81,0.00,,,0.00,WUHU21636XXSP,2013-02-07 06:03:00,
2013-02-07 00:08:00,30.3,25.2,29.99,NW,315,0.0,0.0,81,0.00,,,0.00,WUHU21636XXSP,2013-02-07 06:08:00,
2013-02-07 00:13:00,30.3,25.2,29.99,NW,315,0.0,0.0,81,0.00,,,0.00,WUHU21636XXSP,2013-02-07 06:13:00,
2013-02-07 00:18:00,30.3,25.2,29.98,NW,315,0.0,0.0,81,0.00,,,0.00,WUHU21636XXSP,2013-02-07 06:18:00,
2013-02-07 00:23:00,30.3,25.2,29.99,NW,315,0.0,0.0,81,0.00,,,0.00,WUHU21636XXSP,2013-02-07 06:23:00,
2013-02-07 00:28:00,30.6,25.4,29.98,NW,315,0.0,0.0,81,0.00,,,0.00,WUHU21636XXSP,2013-02-07 06:28:00,
2013-02-07 00:33:00,30.6,25.4,29.99,NW,315,0.0,0.0,81,0.00,,,0.00,WUHU21636XXSP,2013-02-07 06:33:00,
2013-02-07 00:38:00,30.6,25.4,29.98,NW,315,0.0,0.0,81,0.00,,,0.00,WUHU21636XXSP,2013-02-07 06:38:00,
2013-02-07 00:43:00,30.8,25.6,29.98,NW,315,0.0,0.0,81,0.00,,,0.00,WUHU21636XXSP,2013-02-07 06:43:00,
2013-02-07 00:48:00,30.8,25.6,29.98,NW,315,0.0,0.0,81,0.00,,,0.00,WUHU21636XXSP,2013-02-07 06:48:00,
2013-02-07 00:53:00,30.8,25.6,29.98,NW,315,0.0,0.0,81,0.00,,,0.00,WUHU21636XXSP,2013-02-07 06:53:00,
2013-02-07 00:58:00,30.8,25.6,29.98,NW,315,0.0,0.0,81,0.00,,,0.00,WUHU21636XXSP,2013-02-07 06:58:00,
2013-02-07 01:03:00,30.8,25.6,29.98,NW,315,0.0,0.0,81,0.00,,,0.00,WUHU21636XXSP,2013-02-07 07:03:00,
2013-02-07 01:08:00,30.8,25.6,29.98,NW,315,0.0,0.0,81,0.00,,,0.00,WUHU21636XXSP,2013-02-07 07:08:00,
2013-02-07 01:13:00,30.9,25.7,29.97,NW,315,0.0,0.0,81,0.00,,,0.00,WUHU21636XXSP,2013-02-07 07:13:00,
2013-02-07 01:18:00,30.8,25.6,29.97,NW,315,0.0,0.0,81,0.00,,,0.00,WUHU21636XXSP,2013-02-07 07:18:00,
2013-02-07 01:23:00,30.9,25.7,29.97,NW,315,0.0,0.0,81,0.00,,,0.00,WUHU21636XXSP,2013-02-07 07:23:00,
2013-02-07 01:28:00,30.9,25.7,29.97,NW,315,0.0,0.0,81,0.00,,,0.00,WUHU21636XXSP,2013-02-07 07:28:00,
2013-02-07 01:33:00,30.9,25.7,29.97,NW,315,0.0,0.0,81,0.00,,,0.00,WUHU21636XXSP,2013-02-07 07:33:00,
2013-02-07 01:38:00,30.9,25.7,29.97,NW,315,0.0,0.0,81,0.00,,,0.00,WUHU21636XXSP,2013-02-07 07:38:00,
2013-02-07 01:43:00,30.9,25.7,29.96,NW,315,0.0,0.0,81,0.00,,,0.00,WUHU21636XXSP,2013-02-07 07:43:00,
2013-02-07 01:48:00,30.9,25.7,29.97,NW,315,0.0,0.0,81,0.00,,,0.00,WUHU21636XXSP,2013-02-07 07:48:00,
2013-02-07 01:54:00,30.9,25.7,29.97,NW,315,0.0,0.0,81,0.00,,,0.00,WUHU21636XXSP,2013-02-07 07:54:00,
2013-02-07 01:58:00,30.9,25.7,29.97,NW,315,0.0,0.0,81,0.00,,,0.00,WUHU21636XXSP,2013-02-07 07:58:00,
2013-02-07 02:03:00,30.9,25.7,29.97,NW,315,0.0,0.0,81,0.00,,,0.00,WUHU21636XXSP,2013-02-07 08:03:00,
2013-02-07 02:08:00,30.9,25.7,29.97,NW,315,0.0,0.0,81,0.00,,,0.00,WUHU21636XXSP,2013-02-07 08:08:00,
2013-02-07 02:13:00,31.1,25.9,29.97,NW,315,0.0,0.0,81,0.00,,,0.00,WUHU21636XXSP,2013-02-07 08:13:00,
2013-02-07 02:18:00,31.1,25.9,29.97,NW,315,0.0,0.0,81,0.00,,,0.00,WUHU21636XXSP,2013-02-07 08:18:00,
2013-02-07 02:24:00,31.1,26.2,29.97,NW,315,0.0,0.0,82,0.00,,,0.00,WUHU21636XXSP,2013-02-07 08:24:00,
2013-02-07 02:28:00,31.1,26.2,29.97,NW,315,0.0,0.0,82,0.00,,,0.00,WUHU21636XXSP,2013-02-07 08:28:00,
2013-02-07 02:33:00,31.1,26.2,29.97,NW,315,0.0,0.0,82,0.00,,,0.00,WUHU21636XXSP,2013-02-07 08:33:00,
2013-02-07 02:39:00,31.3,26.4,29.97,NW,315,0.0,0.0,82,0.00,,,0.00,WUHU21636XXSP,2013-02-07 08:39:00,
2013-02-07 02:44:00,31.3,26.4,29.97,NW,315,0.0,0.0,82,0.00,,,0.00,WUHU21636XXSP,2013-02-07 08:44:00,
2013-02-07 02:49:00,31.3,26.4,29.97,NW,315,0.0,0.0,82,0.00,,,0.00,WUHU21636XXSP,2013-02-07 08:49:00,
2013-02-07 02:54:00,31.3,26.4,29.97,NW,315,0.0,0.0,82,0.00,,,0.00,WUHU21636XXSP,2013-02-07 08:54:00,
2013-02-07 02:59:00,31.3,26.4,29.97,NW,315,0.0,0.0,82,0.00,,,0.00,WUHU21636XXSP,2013-02-07 08:59:00,
2013-02-07 03:04:00,31.3,26.4,29.97,NW,315,0.0,0.0,82,0.00,,,0.00,WUHU21636XXSP,2013-02-07 09:04:00,
2013-02-07 03:10:00,31.3,26.4,29.96,NW,315,0.0,0.0,82,0.00,,,0.00,WUHU21636XXSP,2013-02-07 09:10:00,
2013-02-07 03:15:00,31.1,26.2,29.97,North,0,0.0,0.0,82,0.00,,,0.00,WUHU21636XXSP,2013-02-07 09:15:00,
2013-02-07 03:20:00,31.1,25.9,29.96,North,0,0.0,0.0,81,0.00,,,0.00,WUHU21636XXSP,2013-02-07 09:20:00,
2013-02-07 03:25:00,31.1,25.9,29.96,ENE,67,0.0,0.0,81,0.00,,,0.00,WUHU21636XXSP,2013-02-07 09:25:00,
2013-02-07 03:30:00,31.1,25.9,29.96,ENE,67,0.0,0.0,81,0.00,,,0.00,WUHU21636XXSP,2013-02-07 09:30:00,
2013-02-07 03:35:00,31.1,25.9,29.96,ENE,67,0.0,0.0,81,0.00,,,0.00,WUHU21636XXSP,2013-02-07 09:35:00,
2013-02-07 03:40:00,31.1,25.9,29.96,ENE,67,0.0,0.0,81,0.00,,,0.00,WUHU21636XXSP,2013-02-07 09:40:00,
2013-02-07 03:45:00,30.9,25.7,29.96,ENE,67,0.0,0.0,81,0.00,,,0.00,WUHU21636XXSP,2013-02-07 09:45:00,
2013-02-07 03:50:00,30.9,25.7,29.96,ENE,67,0.0,0.0,81,0.00,,,0.00,WUHU21636XXSP,2013-02-07 09:50:00,
2013-02-07 03:55:00,30.8,25.6,29.95,ENE,67,0.0,0.0,81,0.00,,,0.00,WUHU21636XXSP,2013-02-07 09:55:00,
2013-02-07 04:00:00,30.6,25.4,29.95,ENE,67,0.0,0.0,81,0.00,,,0.00,WUHU21636XXSP,2013-02-07 10:00:00,
2013-02-07 04:05:00,30.6,25.4,29.96,ENE,67,0.0,0.0,81,0.00,,,0.00,WUHU21636XXSP,2013-02-07 10:05:00,
2013-02-07 04:10:00,30.6,25.4,29.95,ENE,67,0.0,0.0,81,0.00,,,0.00,WUHU21636XXSP,2013-02-07 10:10:00,
2013-02-07 04:15:00,30.6,25.4,29.95,ENE,67,0.0,0.0,81,0.00,,,0.00,WUHU21636XXSP,2013-02-07 10:15:00,
2013-02-07 04:20:00,30.6,25.4,29.96,ENE,67,0.0,0.0,81,0.00,,,0.00,WUHU21636XXSP,2013-02-07 10:20:00,
2013-02-07 04:25:00,30.6,25.4,29.96,ENE,67,0.0,0.0,81,0.00,,,0.00,WUHU21636XXSP,2013-02-07 10:25:00,
2013-02-07 04:30:00,30.6,25.4,29.95,ENE,67,0.0,0.0,81,0.00,,,0.00,WUHU21636XXSP,2013-02-07 10:30:00,
2013-02-07 04:35:00,30.6,25.4,29.96,ENE,67,0.0,0.0,81,0.00,,,0.00,WUHU21636XXSP,2013-02-07 10:35:00,
2013-02-07 04:40:00,30.6,25.4,29.96,ENE,67,0.0,0.0,81,0.00,,,0.00,WUHU21636XXSP,2013-02-07 10:40:00,
2013-02-07 04:45:00,30.6,25.4,29.96,ENE,67,0.0,0.0,81,0.00,,,0.00,WUHU21636XXSP,2013-02-07 10:45:00,
2013-02-07 04:50:00,30.6,25.4,29.95,ENE,67,0.0,0.0,81,0.00,,,0.00,WUHU21636XXSP,2013-02-07 10:50:00,
2013-02-07 04:55:00,30.6,25.4,29.95,ENE,67,0.0,0.0,81,0.00,,,0.00,WUHU21636XXSP,2013-02-07 10:55:00,
2013-02-07 05:01:00,30.3,24.9,29.95,ENE,67,0.0,0.0,80,0.00,,,0.00,WUHU21636XXSP,2013-02-07 11:01:00,
2013-02-07 05:06:00,30.6,25.1,29.95,ENE,67,0.0,0.0,80,0.00,,,0.00,WUHU21636XXSP,2013-02-07 11:06:00,
2013-02-07 05:11:00,30.3,24.9,29.95,ENE,67,0.0,0.0,80,0.00,,,0.00,WUHU21636XXSP,2013-02-07 11:11:00,
2013-02-07 05:16:00,30.1,24.7,29.95,ENE,67,0.0,0.0,80,0.00,,,0.00,WUHU21636XXSP,2013-02-07 11:16:00,
2013-02-07 05:21:00,30.1,24.7,29.95,ENE,67,0.0,0.0,80,0.00,,,0.00,WUHU21636XXSP,2013-02-07 11:21:00,
2013-02-07 05:26:00,30.1,24.7,29.95,ENE,67,0.0,0.0,80,0.00,,,0.00,WUHU21636XXSP,2013-02-07 11:26:00,
2013-02-07 05:31:00,30.1,24.7,29.94,ENE,67,0.0,0.0,80,0.00,,,0.00,WUHU21636XXSP,2013-02-07 11:31:00,
2013-02-07 05:36:00,30.1,24.7,29.94,ENE,67,0.0,0.0,80,0.00,,,0.00,WUHU21636XXSP,2013-02-07 11:36:00,
2013-02-07 05:41:00,30.1,24.7,29.94,ENE,67,0.0,0.0,80,0.00,,,0.00,WUHU21636XXSP,2013-02-07 11:41:00,
2013-02-07 05:46:00,30.1,24.7,29.95,ENE,67,0.0,0.0,80,0.00,,,0.00,WUHU21636XXSP,2013-02-07 11:46:00,
2013-02-07 05:51:00,30.1,24.7,29.95,ENE,67,0.0,0.0,80,0.00,,,0.00,WUHU21636XXSP,2013-02-07 11:51:00,
2013-02-07 05:56:00,30.3,24.9,29.95,ENE,67,0.0,0.0,80,0.00,,,0.00,WUHU21636XXSP,2013-02-07 11:56:00,
2013-02-07 06:01:00,30.3,24.9,29.95,ENE,67,0.0,0.0,80,0.00,,,0.00,WUHU21636XXSP,2013-02-07 12:01:00,
2013-02-07 06:06:00,30.6,25.4,29.96,ENE,67,0.0,0.0,81,0.00,,,0.00,WUHU21636XXSP,2013-02-07 12:06:00,
2013-02-07 06:11:00,30.6,25.4,29.96,East,90,0.0,0.0,81,0.00,,,0.00,WUHU21636XXSP,2013-02-07 12:11:00,
2013-02-07 06:16:00,30.6,25.4,29.96,East,90,0.0,0.0,81,0.00,,,0.00,WUHU21636XXSP,2013-02-07 12:16:00,
2013-02-07 06:21:00,30.6,25.4,29.95,East,90,0.0,0.0,81,0.00,,,0.00,WUHU21636XXSP,2013-02-07 12:21:00,
2013-02-07 06:26:00,30.6,25.4,29.95,East,90,0.0,0.0,81,0.00,,,0.00,WUHU21636XXSP,2013-02-07 12:26:00,
2013-02-07 06:31:00,30.3,24.9,29.95,East,90,0.0,0.0,80,0.00,,,0.00,WUHU21636XXSP,2013-02-07 12:31:00,
2013-02-07 06:36:00,30.3,24.9,29.95,East,90,0.0,0.0,80,0.00,,,0.00,WUHU21636XXSP,2013-02-07 12:36:00,
2013-02-07 06:41:00,30.3,24.9,29.95,East,90,0.0,0.0,80,0.00,,,0.00,WUHU21636XXSP,2013-02-07 12:41:00,
2013-02-07 06:46:00,30.3,24.9,29.95,East,90,0.0,0.0,80,0.00,,,0.00,WUHU21636XXSP,2013-02-07 12:46:00,
2013-02-07 06:51:00,30.3,24.9,29.95,East,90,0.0,0.0,80,0.00,,,0.00,WUHU21636XXSP,2013-02-07 12:51:00,
2013-02-07 06:56:00,30.3,24.9,29.95,East,90,0.0,0.0,80,0.00,,,0.00,WUHU21636XXSP,2013-02-07 12:56:00,
2013-02-07 07:01:00,30.3,24.9,29.96,ESE,112,0.0,0.0,80,0.00,,,0.00,WUHU21636XXSP,2013-02-07 13:01:00,
2013-02-07 07:06:00,30.3,24.9,29.95,East,90,0.0,0.0,80,0.00,,,0.00,WUHU21636XXSP,2013-02-07 13:06:00,
2013-02-07 07:11:00,30.1,24.7,29.95,East,90,0.0,0.0,80,0.00,,,0.00,WUHU21636XXSP,2013-02-07 13:11:00,
2013-02-07 07:16:00,30.1,24.7,29.95,East,90,0.0,0.0,80,0.00,,,0.00,WUHU21636XXSP,2013-02-07 13:16:00,
2013-02-07 07:21:00,30.1,24.7,29.96,ESE,112,0.0,0.0,80,0.00,,,0.00,WUHU21636XXSP,2013-02-07 13:21:00,
2013-02-07 07:26:00,30.1,24.7,29.96,ESE,112,0.0,0.0,80,0.00,,,0.00,WUHU21636XXSP,2013-02-07 13:26:00,
2013-02-07 07:31:00,30.1,24.7,29.96,ESE,112,0.0,0.0,80,0.00,,,0.00,WUHU21636XXSP,2013-02-07 13:31:00,
2013-02-07 07:37:00,30.1,24.7,29.96,ESE,112,0.0,0.0,80,0.00,,,0.00,WUHU21636XXSP,2013-02-07 13:37:00,
2013-02-07 07:42:00,30.1,24.7,29.96,East,90,0.0,0.0,80,0.00,,,0.00,WUHU21636XXSP,2013-02-07 13:42:00,
2013-02-07 07:47:00,30.1,24.7,29.96,East,90,0.0,0.0,80,0.00,,,0.00,WUHU21636XXSP,2013-02-07 13:47:00,
2013-02-07 07:52:00,30.1,24.7,29.96,NE,45,0.0,0.0,80,0.00,,,0.00,WUHU21636XXSP,2013-02-07 13:52:00,
2013-02-07 07:57:00,30.1,24.7,29.97,East,90,0.0,0.0,80,0.00,,,0.00,WUHU21636XXSP,2013-02-07 13:57:00,
2013-02-07 08:02:00,30.1,24.7,29.97,ENE,67,0.0,0.0,80,0.00,,,0.00,WUHU21636XXSP,2013-02-07 14:02:00,
2013-02-07 08:07:00,30.1,24.7,29.97,ESE,112,0.0,0.0,80,0.00,,,0.00,WUHU21636XXSP,2013-02-07 14:07:00,
2013-02-07 08:12:00,30.1,24.7,29.97,East,90,0.0,0.0,80,0.00,,,0.00,WUHU21636XXSP,2013-02-07 14:12:00,
2013-02-07 08:17:00,30.3,24.9,29.97,ENE,67,0.0,0.0,80,0.00,,,0.00,WUHU21636XXSP,2013-02-07 14:17:00,
2013-02-07 08:22:00,30.6,25.1,29.97,ENE,67,0.0,0.0,80,0.00,,,0.00,WUHU21636XXSP,2013-02-07 14:22:00,
2013-02-07 08:27:00,30.8,25.3,29.97,East,90,0.0,0.0,80,0.00,,,0.00,WUHU21636XXSP,2013-02-07 14:27:00,
2013-02-07 08:32:00,30.8,25.3,29.97,East,90,0.0,0.0,80,0.00,,,0.00,WUHU21636XXSP,2013-02-07 14:32:00,
2013-02-07 08:37:00,30.8,25.0,29.97,ENE,67,0.0,0.0,79,0.00,,,0.00,WUHU21636XXSP,2013-02-07 14:37:00,
2013-02-07 08:42:00,30.9,25.1,29.98,East,90,0.0,0.0,79,0.00,,,0.00,WUHU21636XXSP,2013-02-07 14:42:00,
2013-02-07 08:47:00,30.9,25.1,29.98,East,90,0.0,0.0,79,0.00,,,0.00,WUHU21636XXSP,2013-02-07 14:47:00,
2013-02-07 08:52:00,30.9,25.1,29.98,ENE,67,0.0,0.0,79,0.00,,,0.00,WUHU21636XXSP,2013-02-07 14:52:00,
2013-02-07 08:57:00,31.1,25.3,29.98,NE,45,0.0,0.0,79,0.00,,,0.00,WUHU21636XXSP,2013-02-07 14:57:00,
2013-02-07 09:02:00,31.1,25.3,29.98,ESE,112,0.0,0.0,79,0.00,,,0.00,WUHU21636XXSP,2013-02-07 15:02:00,
2013-02-07 09:07:00,31.3,25.5,29.98,NE,45,0.0,0.0,79,0.00,,,0.00,WUHU21636XXSP,2013-02-07 15:07:00,
2013-02-07 09:12:00,31.5,25.5,29.98,ESE,112,0.0,0.0,78,0.00,,,0.00,WUHU21636XXSP,2013-02-07 15:12:00,
2013-02-07 09:17:00,31.5,25.8,29.98,ENE,67,0.0,0.0,79,0.00,,,0.00,WUHU21636XXSP,2013-02-07 15:17:00,
2013-02-07 09:22:00,31.5,25.8,29.98,NNE,22,0.0,0.0,79,0.00,,,0.00,WUHU21636XXSP,2013-02-07 15:22:00,
2013-02-07 09:27:00,31.8,25.8,29.98,North,0,0.0,0.0,78,0.00,,,0.00,WUHU21636XXSP,2013-02-07 15:27:00,
2013-02-07 09:32:00,31.8,25.8,29.98,NE,45,0.0,0.0,78,0.00,,,0.00,WUHU21636XXSP,2013-02-07 15:32:00,
2013-02-07 09:38:00,32.0,26.0,29.98,ENE,67,0.0,0.0,78,0.00,,,0.00,WUHU21636XXSP,2013-02-07 15:38:00,
2013-02-07 09:43:00,32.0,26.0,29.98,ENE,67,0.0,0.0,78,0.00,,,0.00,WUHU21636XXSP,2013-02-07 15:43:00,
2013-02-07 09:48:00,32.4,26.4,29.98,ENE,67,0.0,0.0,78,0.00,,,0.00,WUHU21636XXSP,2013-02-07 15:48:00,
2013-02-07 09:53:00,32.4,26.4,29.98,NE,45,0.0,0.0,78,0.00,,,0.00,WUHU21636XXSP,2013-02-07 15:53:00,
2013-02-07 09:58:00,32.7,26.6,29.98,East,90,0.0,0.0,78,0.00,,,0.00,WUHU21636XXSP,2013-02-07 15:58:00,
2013-02-07 10:03:00,32.7,26.6,29.98,NE,45,0.0,0.0,78,0.00,,,0.00,WUHU21636XXSP,2013-02-07 16:03:00,
2013-02-07 10:08:00,32.8,26.4,29.99,East,90,0.0,0.0,77,0.00,,,0.00,WUHU21636XXSP,2013-02-07 16:08:00,
2013-02-07 10:13:00,33.0,26.6,29.98,West,270,0.0,0.0,77,0.00,,,0.00,WUHU21636XXSP,2013-02-07 16:13:00,
2013-02-07 10:18:00,33.0,26.6,29.98,NE,45,0.0,0.0,77,0.00,,,0.00,WUHU21636XXSP,2013-02-07 16:18:00,
2013-02-07 10:23:00,33.0,26.6,29.99,NE,45,0.0,0.0,77,0.00,,,0.00,WUHU21636XXSP,2013-02-07 16:23:00,
2013-02-07 10:28:00,33.0,26.6,29.99,ENE,67,0.0,0.0,77,0.00,,,0.00,WUHU21636XXSP,2013-02-07 16:28:00,
2013-02-07 10:33:00,33.0,26.6,29.99,ESE,112,0.0,0.0,77,0.00,,,0.00,WUHU21636XXSP,2013-02-07 16:33:00,
2013-02-07 10:38:00,33.0,26.6,29.99,ENE,67,0.0,0.0,77,0.00,,,0.00,WUHU21636XXSP,2013-02-07 16:38:00,
2013-02-07 10:43:00,32.8,26.4,29.99,East,90,0.0,0.0,77,0.00,,,0.00,WUHU21636XXSP,2013-02-07 16:43:00,
2013-02-07 10:48:00,33.0,26.6,29.99,ESE,112,0.0,0.0,77,0.00,,,0.00,WUHU21636XXSP,2013-02-07 16:48:00,
2013-02-07 10:53:00,32.8,26.4,29.99,ESE,112,0.0,0.0,77,0.00,,,0.00,WUHU21636XXSP,2013-02-07 16:53:00,
2013-02-07 10:58:00,32.8,26.4,29.99,East,90,0.0,0.0,77,0.00,,,0.00,WUHU21636XXSP,2013-02-07 16:58:00,
2013-02-07 11:03:00,32.8,26.4,29.99,NE,45,0.0,0.0,77,0.00,,,0.00,WUHU21636XXSP,2013-02-07 17:03:00,
2013-02-07 11:08:00,32.8,26.4,29.99,East,90,0.0,0.0,77,0.00,,,0.00,WUHU21636XXSP,2013-02-07 17:08:00,
2013-02-07 11:13:00,33.0,26.6,29.99,East,90,0.0,0.0,77,0.00,,,0.00,WUHU21636XXSP,2013-02-07 17:13:00,
2013-02-07 11:18:00,33.0,26.6,29.99,East,90,0.0,0.0,77,0.00,,,0.00,WUHU21636XXSP,2013-02-07 17:18:00,
2013-02-07 11:23:00,32.8,26.4,29.99,ENE,67,0.0,0.0,77,0.00,,,0.00,WUHU21636XXSP,2013-02-07 17:23:00,
2013-02-07 11:28:00,33.0,26.6,29.99,NE,45,0.0,0.0,77,0.00,,,0.00,WUHU21636XXSP,2013-02-07 17:28:00,
2013-02-07 11:33:00,32.8,26.1,29.99,East,90,0.0,0.0,76,0.00,,,0.00,WUHU21636XXSP,2013-02-07 17:33:00,
2013-02-07 11:38:00,32.8,26.4,29.99,ENE,67,0.0,0.0,77,0.00,,,0.00,WUHU21636XXSP,2013-02-07 17:38:00,
2013-02-07 11:43:00,32.7,26.0,29.98,SE,135,0.0,0.0,76,0.00,,,0.00,WUHU21636XXSP,2013-02-07 17:43:00,
2013-02-07 11:48:00,32.4,25.8,29.98,ENE,67,0.0,0.0,76,0.00,,,0.00,WUHU21636XXSP,2013-02-07 17:48:00,
2013-02-07 11:53:00,32.4,25.8,29.98,East,90,0.0,0.0,76,0.00,,,0.00,WUHU21636XXSP,2013-02-07 17:53:00,
2013-02-07 11:58:00,32.4,26.1,29.98,NE,45,0.0,0.0,77,0.00,,,0.00,WUHU21636XXSP,2013-02-07 17:58:00,
2013-02-07 12:03:00,32.4,26.1,29.98,ENE,67,0.0,0.0,77,0.00,,,0.00,WUHU21636XXSP,2013-02-07 18:03:00,
2013-02-07 12:08:00,32.0,25.3,29.98,ESE,112,0.0,0.0,76,0.00,,,0.00,WUHU21636XXSP,2013-02-07 18:08:00,
2013-02-07 12:13:00,32.0,25.7,29.98,ENE,67,0.0,0.0,77,0.00,,,0.00,WUHU21636XXSP,2013-02-07 18:13:00,
2013-02-07 12:18:00,32.0,25.3,29.98,NE,45,0.0,0.0,76,0.00,,,0.00,WUHU21636XXSP,2013-02-07 18:18:00,
2013-02-07 12:23:00,31.8,25.1,29.98,NE,45,0.0,0.0,76,0.00,,,0.00,WUHU21636XXSP,2013-02-07 18:23:00,
2013-02-07 12:28:00,31.5,25.1,29.97,ENE,67,0.0,0.0,77,0.00,,,0.00,WUHU21636XXSP,2013-02-07 18:28:00,
2013-02-07 12:33:00,31.5,25.1,29.97,East,90,0.0,0.0,77,0.00,,,0.00,WUHU21636XXSP,2013-02-07 18:33:00,
2013-02-07 12:38:00,30.9,24.5,29.97,East,90,0.0,0.0,77,0.00,,,0.00,WUHU21636XXSP,2013-02-07 18:38:00,
2013-02-07 12:43:00,31.1,25.0,29.97,East,90,0.0,0.0,78,0.00,,,0.00,WUHU21636XXSP,2013-02-07 18:43:00,
2013-02-07 12:48:00,31.1,24.7,29.97,East,90,0.0,0.0,77,0.00,,,0.00,WUHU21636XXSP,2013-02-07 18:48:00,
2013-02-07 12:53:00,31.3,25.2,29.97,East,90,0.0,0.0,78,0.00,,,0.00,WUHU21636XXSP,2013-02-07 18:53:00,
2013-02-07 12:58:00,31.1,24.7,29.97,ESE,112,0.0,0.0,77,0.00,,,0.00,WUHU21636XXSP,2013-02-07 18:58:00,
2013-02-07 13:03:00,31.1,25.0,29.97,ENE,67,0.0,0.0,78,0.00,,,0.00,WUHU21636XXSP,2013-02-07 19:03:00,
2013-02-07 13:08:00,31.1,25.0,29.97,East,90,0.0,0.0,78,0.00,,,0.00,WUHU21636XXSP,2013-02-07 19:08:00,
2013-02-07 13:14:00,31.3,25.2,29.97,East,90,0.0,0.0,78,0.00,,,0.00,WUHU21636XXSP,2013-02-07 19:14:00,
2013-02-07 13:19:00,31.3,25.2,29.97,ENE,67,0.0,0.0,78,0.00,,,0.00,WUHU21636XXSP,2013-02-07 19:19:00,
2013-02-07 13:25:00,31.3,25.2,29.97,ENE,67,0.0,0.0,78,0.00,,,0.00,WUHU21636XXSP,2013-02-07 19:25:00,
2013-02-07 13:30:00,31.3,25.2,29.97,ENE,67,0.0,0.0,78,0.00,,,0.00,WUHU21636XXSP,2013-02-07 19:30:00,
2013-02-07 13:36:00,31.3,25.2,29.97,East,90,0.0,0.0,78,0.00,,,0.00,WUHU21636XXSP,2013-02-07 19:36:00,
2013-02-07 13:41:00,31.1,25.0,29.97,East,90,0.0,0.0,78,0.00,,,0.00,WUHU21636XXSP,2013-02-07 19:41:00,
2013-02-07 13:46:00,31.1,25.0,29.97,East,90,0.0,0.0,78,0.00,,,0.00,WUHU21636XXSP,2013-02-07 19:46:00,
2013-02-07 13:51:00,31.1,25.0,29.97,ENE,67,0.0,0.0,78,0.00,,,0.00,WUHU21636XXSP,2013-02-07 19:51:00,
2013-02-07 13:56:00,30.9,24.8,29.97,SE,135,0.0,0.0,78,0.00,,,0.00,WUHU21636XXSP,2013-02-07 19:56:00,
2013-02-07 14:01:00,30.9,25.1,29.96,ESE,112,0.0,0.0,79,0.00,,,0.00,WUHU21636XXSP,2013-02-07 20:01:00,
2013-02-07 14:07:00,30.9,25.1,29.96,East,90,0.0,0.0,79,0.00,,,0.00,WUHU21636XXSP,2013-02-07 20:07:00,
2013-02-07 14:12:00,30.9,25.1,29.96,ENE,67,0.0,0.0,79,0.00,,,0.00,WUHU21636XXSP,2013-02-07 20:12:00,
2013-02-07 14:17:00,31.1,25.3,29.96,ENE,67,0.0,0.0,79,0.00,,,0.00,WUHU21636XXSP,2013-02-07 20:17:00,
2013-02-07 14:22:00,31.1,25.3,29.96,ENE,67,0.0,0.0,79,0.00,,,0.00,WUHU21636XXSP,2013-02-07 20:22:00,
2013-02-07 14:27:00,31.3,25.8,29.96,ENE,67,0.0,0.0,80,0.00,,,0.00,WUHU21636XXSP,2013-02-07 20:27:00,
2013-02-07 14:32:00,31.3,25.8,29.96,ENE,67,0.0,0.0,80,0.00,,,0.00,WUHU21636XXSP,2013-02-07 20:32:00,
2013-02-07 14:37:00,31.5,25.8,29.96,ESE,112,0.0,0.0,79,0.00,,,0.00,WUHU21636XXSP,2013-02-07 20:37:00,
2013-02-07 14:42:00,31.5,25.8,29.96,NNE,22,0.0,0.0,79,0.00,,,0.00,WUHU21636XXSP,2013-02-07 20:42:00,
2013-02-07 14:47:00,31.3,25.5,29.96,East,90,0.0,0.0,79,0.00,,,0.00,WUHU21636XXSP,2013-02-07 20:47:00,
2013-02-07 14:52:00,31.5,25.8,29.96,East,90,0.0,0.0,79,0.00,,,0.00,WUHU21636XXSP,2013-02-07 20:52:00,
2013-02-07 14:57:00,31.5,25.8,29.96,East,90,0.0,0.0,79,0.00,,,0.00,WUHU21636XXSP,2013-02-07 20:57:00,
2013-02-07 15:02:00,31.3,25.5,29.96,ENE,67,0.0,0.0,79,0.00,,,0.00,WUHU21636XXSP,2013-02-07 21:02:00,
2013-02-07 15:07:00,31.3,25.5,29.97,ENE,67,0.0,0.0,79,0.00,,,0.00,WUHU21636XXSP,2013-02-07 21:07:00,
2013-02-07 15:12:00,31.5,25.8,29.97,ESE,112,0.0,0.0,79,0.00,,,0.00,WUHU21636XXSP,2013-02-07 21:12:00,
2013-02-07 15:17:00,30.9,24.8,29.97,WNW,292,0.0,0.0,78,0.00,,,0.00,WUHU21636XXSP,2013-02-07 21:17:00,
2013-02-07 15:22:00,30.9,25.1,29.97,ESE,112,0.0,0.0,79,0.00,,,0.00,WUHU21636XXSP,2013-02-07 21:22:00,
2013-02-07 15:27:00,31.1,25.3,29.98,ESE,112,0.0,0.0,79,0.00,,,0.00,WUHU21636XXSP,2013-02-07 21:27:00,
2013-02-07 15:32:00,31.1,25.3,29.98,ESE,112,0.0,0.0,79,0.00,,,0.00,WUHU21636XXSP,2013-02-07 21:32:00,
2013-02-07 15:37:00,31.1,25.3,29.98,ENE,67,0.0,0.0,79,0.00,,,0.00,WUHU21636XXSP,2013-02-07 21:37:00,
2013-02-07 15:42:00,31.1,25.0,29.98,East,90,0.0,0.0,78,0.00,,,0.00,WUHU21636XXSP,2013-02-07 21:42:00,
2013-02-07 15:47:00,31.1,25.0,29.98,East,90,0.0,0.0,78,0.00,,,0.00,WUHU21636XXSP,2013-02-07 21:47:00,
2013-02-07 15:52:00,30.9,24.8,29.98,NE,45,0.0,0.0,78,0.00,,,0.00,WUHU21636XXSP,2013-02-07 21:52:00,
2013-02-07 15:57:00,30.6,24.5,29.98,NE,45,0.0,0.0,78,0.00,,,0.00,WUHU21636XXSP,2013-02-07 21:57:00,
2013-02-07 16:02:00,30.6,24.5,29.98,ENE,67,0.0,0.0,78,0.00,,,0.00,WUHU21636XXSP,2013-02-07 22:02:00,
2013-02-07 16:07:00,30.1,24.1,29.98,ENE,67,0.0,0.0,78,0.00,,,0.00,WUHU21636XXSP,2013-02-07 22:07:00,
2013-02-07 16:12:00,30.3,24.3,29.98,NE,45,0.0,0.0,78,0.00,,,0.00,WUHU21636XXSP,2013-02-07 22:12:00,
2013-02-07 16:17:00,30.1,24.1,29.99,ENE,67,0.0,0.0,78,0.00,,,0.00,WUHU21636XXSP,2013-02-07 22:17:00,
2013-02-07 16:22:00,30.1,24.1,29.99,SE,135,0.0,0.0,78,0.00,,,0.00,WUHU21636XXSP,2013-02-07 22:22:00,
2013-02-07 16:27:00,30.1,24.1,29.99,SSE,157,0.0,0.0,78,0.00,,,0.00,WUHU21636XXSP,2013-02-07 22:27:00,
2013-02-07 16:32:00,30.1,24.1,29.99,SSE,157,0.0,0.0,78,0.00,,,0.00,WUHU21636XXSP,2013-02-07 22:32:00,
2013-02-07 16:37:00,30.1,24.4,29.99,SE,135,0.0,0.0,79,0.00,,,0.00,WUHU21636XXSP,2013-02-07 22:37:00,
2013-02-07 16:42:00,30.1,24.4,29.99,ESE,112,0.0,0.0,79,0.00,,,0.00,WUHU21636XXSP,2013-02-07 22:42:00,
2013-02-07 16:47:00,30.1,24.1,30.00,ESE,112,0.0,0.0,78,0.00,,,0.00,WUHU21636XXSP,2013-02-07 22:47:00,
2013-02-07 16:52:00,29.9,23.9,30.01,NE,45,0.0,0.0,78,0.00,,,0.00,WUHU21636XXSP,2013-02-07 22:52:00,
2013-02-07 16:57:00,29.8,23.8,30.00,NE,45,0.0,0.0,78,0.00,,,0.00,WUHU21636XXSP,2013-02-07 22:57:00,
2013-02-07 17:02:00,29.8,23.8,30.01,ENE,67,0.0,0.0,78,0.00,,,0.00,WUHU21636XXSP,2013-02-07 23:02:00,
2013-02-07 17:07:00,29.6,23.6,30.01,East,90,0.0,0.0,78,0.00,,,0.00,WUHU21636XXSP,2013-02-07 23:07:00,
2013-02-07 17:12:00,29.4,23.4,30.01,NE,45,0.0,0.0,78,0.00,,,0.00,WUHU21636XXSP,2013-02-07 23:12:00,
2013-02-07 17:17:00,29.2,23.2,30.01,NE,45,0.0,0.0,78,0.00,,,0.00,WUHU21636XXSP,2013-02-07 23:17:00,
2013-02-07 17:22:00,29.0,23.0,30.01,SE,135,0.0,0.0,78,0.00,,,0.00,WUHU21636XXSP,2013-02-07 23:22:00,
2013-02-07 17:27:00,28.9,22.9,30.02,NE,45,0.0,0.0,78,0.00,,,0.00,WUHU21636XXSP,2013-02-07 23:27:00,
2013-02-07 17:32:00,28.9,22.9,30.02,NE,45,0.0,0.0,78,0.00,,,0.00,WUHU21636XXSP,2013-02-07 23:32:00,
2013-02-07 17:37:00,28.9,22.9,30.03,ENE,67,0.0,0.0,78,0.00,,,0.00,WUHU21636XXSP,2013-02-07 23:37:00,
2013-02-07 17:42:00,28.9,22.9,30.03,ESE,112,0.0,0.0,78,0.00,,,0.00,WUHU21636XXSP,2013-02-07 23:42:00,
2013-02-07 17:47:00,28.9,22.9,30.03,SE,135,0.0,0.0,78,0.00,,,0.00,WUHU21636XXSP,2013-02-07 23:47:00,
2013-02-07 17:52:00,28.9,22.9,30.03,NE,45,0.0,0.0,78,0.00,,,0.00,WUHU21636XXSP,2013-02-07 23:52:00,
2013-02-07 17:57:00,28.7,23.0,30.04,SSE,157,0.0,0.0,79,0.00,,,0.00,WUHU21636XXSP,2013-02-07 23:57:00,
2013-02-07 18:02:00,28.2,22.6,30.04,NNE,22,0.0,0.0,79,0.00,,,0.00,WUHU21636XXSP,2013-02-08 00:02:00,
2013-02-07 18:07:00,28.2,22.6,30.04,SE,135,0.0,0.0,79,0.00,,,0.00,WUHU21636XXSP,2013-02-08 00:07:00,
2013-02-07 18:12:00,28.2,22.6,30.05,NE,45,0.0,0.0,79,0.00,,,0.00,WUHU21636XXSP,2013-02-08 00:12:00,
2013-02-07 18:17:00,28.2,22.6,30.05,SE,135,0.0,0.0,79,0.00,,,0.00,WUHU21636XXSP,2013-02-08 00:17:00,
2013-02-07 18:22:00,28.0,22.4,30.05,SE,135,0.0,0.0,79,0.00,,,0.00,WUHU21636XXSP,2013-02-08 00:22:00,
2013-02-07 18:27:00,28.0,22.4,30.05,ESE,112,0.0,0.0,79,0.00,,,0.00,WUHU21636XXSP,2013-02-08 00:27:00,
2013-02-07 18:33:00,28.0,22.4,30.06,SE,135,0.0,0.0,79,0.00,,,0.00,WUHU21636XXSP,2013-02-08 00:33:00,
2013-02-07 18:38:00,28.0,22.4,30.06,SSE,157,0.0,0.0,79,0.00,,,0.00,WUHU21636XXSP,2013-02-08 00:38:00,
2013-02-07 18:44:00,28.0,22.4,30.06,ESE,112,0.0,0.0,79,0.00,,,0.00,WUHU21636XXSP,2013-02-08 00:44:00,
2013-02-07 18:49:00,28.0,22.4,30.06,ESE,112,0.0,0.0,79,0.00,,,0.00,WUHU21636XXSP,2013-02-08 00:49:00,
2013-02-07 18:54:00,28.0,22.4,30.07,East,90,0.0,0.0,79,0.00,,,0.00,WUHU21636XXSP,2013-02-08 00:54:00,
2013-02-07 18:59:00,27.9,22.3,30.07,ESE,112,0.0,0.0,79,0.00,,,0.00,WUHU21636XXSP,2013-02-08 00:59:00,
2013-02-07 19:04:00,27.9,22.6,30.07,SE,135,0.0,0.0,80,0.00,,,0.00,WUHU21636XXSP,2013-02-08 01:04:00,
2013-02-07 19:09:00,28.0,22.7,30.07,East,90,0.0,0.0,80,0.00,,,0.00,WUHU21636XXSP,2013-02-08 01:09:00,
2013-02-07 19:14:00,28.0,22.7,30.07,ENE,67,0.0,0.0,80,0.00,,,0.00,WUHU21636XXSP,2013-02-08 01:14:00,
2013-02-07 19:19:00,28.0,22.7,30.07,ESE,112,0.0,0.0,80,0.00,,,0.00,WUHU21636XXSP,2013-02-08 01:19:00,
2013-02-07 19:24:00,27.7,22.4,30.07,North,0,0.0,0.0,80,0.00,,,0.00,WUHU21636XXSP,2013-02-08 01:24:00,
2013-02-07 19:29:00,27.7,22.4,30.07,ENE,67,0.0,0.0,80,0.00,,,0.00,WUHU21636XXSP,2013-02-08 01:29:00,
2013-02-07 19:34:00,27.7,22.4,30.07,ENE,67,0.0,0.0,80,0.00,,,0.00,WUHU21636XXSP,2013-02-08 01:34:00,
2013-02-07 19:39:00,27.5,22.2,30.07,ESE,112,0.0,0.0,80,0.00,,,0.00,WUHU21636XXSP,2013-02-08 01:39:00,
2013-02-07 19:44:00,27.5,22.2,30.07,East,90,0.0,0.0,80,0.00,,,0.00,WUHU21636XXSP,2013-02-08 01:44:00,
2013-02-07 19:49:00,27.5,22.4,30.07,NE,45,0.0,0.0,81,0.00,,,0.00,WUHU21636XXSP,2013-02-08 01:49:00,
2013-02-07 19:54:00,27.5,22.4,30.08,East,90,0.0,0.0,81,0.00,,,0.00,WUHU21636XXSP,2013-02-08 01:54:00,
2013-02-07 19:59:00,27.5,22.4,30.08,East,90,0.0,0.0,81,0.00,,,0.00,WUHU21636XXSP,2013-02-08 01:59:00,
2013-02-07 20:04:00,27.7,22.6,30.08,ESE,112,0.0,0.0,81,0.00,,,0.00,WUHU21636XXSP,2013-02-08 02:04:00,
2013-02-07 20:09:00,27.5,22.4,30.08,East,90,0.0,0.0,81,0.00,,,0.00,WUHU21636XXSP,2013-02-08 02:09:00,
2013-02-07 20:14:00,27.5,22.4,30.08,East,90,0.0,0.0,81,0.00,,,0.00,WUHU21636XXSP,2013-02-08 02:14:00,
2013-02-07 20:19:00,27.7,22.6,30.08,ESE,112,0.0,0.0,81,0.00,,,0.00,WUHU21636XXSP,2013-02-08 02:19:00,
2013-02-07 20:24:00,27.5,22.4,30.09,ESE,112,0.0,0.0,81,0.00,,,0.00,WUHU21636XXSP,2013-02-08 02:24:00,
2013-02-07 20:29:00,27.5,22.4,30.09,NNE,22,0.0,0.0,81,0.00,,,0.00,WUHU21636XXSP,2013-02-08 02:29:00,
2013-02-07 20:34:00,27.5,22.4,30.09,NNE,22,0.0,0.0,81,0.00,,,0.00,WUHU21636XXSP,2013-02-08 02:34:00,
2013-02-07 20:39:00,27.5,22.4,30.09,NNE,22,0.0,0.0,81,0.00,,,0.00,WUHU21636XXSP,2013-02-08 02:39:00,
2013-02-07 20:44:00,27.5,22.4,30.10,NNE,22,0.0,0.0,81,0.00,,,0.00,WUHU21636XXSP,2013-02-08 02:44:00,
2013-02-07 20:49:00,27.7,22.6,30.10,North,0,0.0,0.0,81,0.00,,,0.00,WUHU21636XXSP,2013-02-08 02:49:00,
2013-02-07 20:54:00,27.5,22.4,30.10,SE,135,0.0,0.0,81,0.00,,,0.00,WUHU21636XXSP,2013-02-08 02:54:00,
2013-02-07 20:59:00,27.5,22.4,30.10,SE,135,0.0,0.0,81,0.00,,,0.00,WUHU21636XXSP,2013-02-08 02:59:00,
2013-02-07 21:04:00,27.5,22.4,30.10,SE,135,0.0,0.0,81,0.00,,,0.00,WUHU21636XXSP,2013-02-08 03:04:00,
2013-02-07 21:09:00,27.5,22.2,30.10,ENE,67,0.0,0.0,80,0.00,,,0.00,WUHU21636XXSP,2013-02-08 03:09:00,
2013-02-07 21:14:00,27.3,21.9,30.10,ENE,67,0.0,0.0,80,0.00,,,0.00,WUHU21636XXSP,2013-02-08 03:14:00,
2013-02-07 21:19:00,27.3,21.9,30.11,ENE,67,0.0,0.0,80,0.00,,,0.00,WUHU21636XXSP,2013-02-08 03:19:00,
2013-02-07 21:24:00,27.3,21.9,30.11,ESE,112,0.0,0.0,80,0.00,,,0.00,WUHU21636XXSP,2013-02-08 03:24:00,
2013-02-07 21:29:00,27.3,21.9,30.11,SSE,157,0.0,0.0,80,0.00,,,0.00,WUHU21636XXSP,2013-02-08 03:29:00,
2013-02-07 21:34:00,27.3,21.9,30.12,SSE,157,0.0,0.0,80,0.00,,,0.00,WUHU21636XXSP,2013-02-08 03:34:00,
2013-02-07 21:40:00,27.5,22.4,30.12,SSE,157,0.0,0.0,81,0.00,,,0.00,WUHU21636XXSP,2013-02-08 03:40:00,
2013-02-07 21:45:00,27.5,22.4,30.11,SSE,157,0.0,0.0,81,0.00,,,0.00,WUHU21636XXSP,2013-02-08 03:45:00,
2013-02-07 21:50:00,27.3,22.2,30.12,ESE,112,0.0,0.0,81,0.00,,,0.00,WUHU21636XXSP,2013-02-08 03:50:00,
2013-02-07 21:55:00,27.5,22.4,30.12,East,90,0.0,0.0,81,0.00,,,0.00,WUHU21636XXSP,2013-02-08 03:55:00,
2013-02-07 22:00:00,27.3,22.2,30.12,ENE,67,0.0,0.0,81,0.00,,,0.00,WUHU21636XXSP,2013-02-08 04:00:00,
2013-02-07 22:05:00,27.3,22.2,30.12,SE,135,0.0,0.0,81,0.00,,,0.00,WUHU21636XXSP,2013-02-08 04:05:00,
2013-02-07 22:10:00,27.1,21.7,30.12,ESE,112,0.0,0.0,80,0.00,,,0.00,WUHU21636XXSP,2013-02-08 04:10:00,
2013-02-07 22:15:00,27.1,21.7,30.13,ESE,112,0.0,0.0,80,0.00,,,0.00,WUHU21636XXSP,2013-02-08 04:15:00,
2013-02-07 22:20:00,27.1,21.7,30.12,ESE,112,0.0,0.0,80,0.00,,,0.00,WUHU21636XXSP,2013-02-08 04:20:00,
2013-02-07 22:25:00,27.1,21.7,30.13,ESE,112,0.0,0.0,80,0.00,,,0.00,WUHU21636XXSP,2013-02-08 04:25:00,
2013-02-07 22:30:00,27.1,21.7,30.12,SE,135,0.0,0.0,80,0.00,,,0.00,WUHU21636XXSP,2013-02-08 04:30:00,
2013-02-07 22:35:00,27.1,21.7,30.12,SE,135,0.0,0.0,80,0.00,,,0.00,WUHU21636XXSP,2013-02-08 04:35:00,
2013-02-07 22:40:00,27.0,21.6,30.13,SE,135,0.0,0.0,80,0.00,,,0.00,WUHU21636XXSP,2013-02-08 04:40:00,
2013-02-07 22:45:00,27.0,21.6,30.14,SE,135,0.0,0.0,80,0.00,,,0.00,WUHU21636XXSP,2013-02-08 04:45:00,
2013-02-07 22:50:00,27.0,21.6,30.14,SE,135,0.0,0.0,80,0.00,,,0.00,WUHU21636XXSP,2013-02-08 04:50:00,
2013-02-07 22:55:00,27.0,21.6,30.14,ENE,67,0.0,0.0,80,0.00,,,0.00,WUHU21636XXSP,2013-02-08 04:55:00,
2013-02-07 23:00:00,27.0,21.6,30.14,NE,45,0.0,0.0,80,0.00,,,0.00,WUHU21636XXSP,2013-02-08 05:00:00,
2013-02-07 23:05:00,26.8,21.1,30.14,NNE,22,0.0,0.0,79,0.00,,,0.00,WUHU21636XXSP,2013-02-08 05:05:00,
2013-02-07 23:10:00,26.6,21.2,30.14,NNE,22,0.0,0.0,80,0.00,,,0.00,WUHU21636XXSP,2013-02-08 05:10:00,
2013-02-07 23:15:00,26.6,21.2,30.15,SSE,157,0.0,0.0,80,0.00,,,0.00,WUHU21636XXSP,2013-02-08 05:15:00,
2013-02-07 23:20:00,26.6,21.2,30.15,SE,135,0.0,0.0,80,0.00,,,0.00,WUHU21636XXSP,2013-02-08 05:20:00,
2013-02-07 23:25:00,26.6,21.2,30.15,ENE,67,0.0,0.0,80,0.00,,,0.00,WUHU21636XXSP,2013-02-08 05:25:00,
2013-02-07 23:30:00,26.6,21.2,30.15,ENE,67,0.0,0.0,80,0.00,,,0.00,WUHU21636XXSP,2013-02-08 05:30:00,
2013-02-07 23:35:00,26.6,21.2,30.15,ENE,67,0.0,0.0,80,0.00,,,0.00,WUHU21636XXSP,2013-02-08 05:35:00,
2013-02-07 23:40:00,26.6,21.2,30.15,SE,135,0.0,0.0,80,0.00,,,0.00,WUHU21636XXSP,2013-02-08 05:40:00,
2013-02-07 23:45:00,26.4,21.0,30.15,NE,45,0.0,0.0,80,0.00,,,0.00,WUHU21636XXSP,2013-02-08 05:45:00,
2013-02-07 23:50:00,26.4,21.0,30.15,ENE,67,0.0,0.0,80,0.00,,,0.00,WUHU21636XXSP,2013-02-08 05:50:00,
2013-02-07 23:55:00,26.4,21.0,30.16,ESE,112,0.0,0.0,80,0.00,,,0.00,WUHU21636XXSP,2013-02-08 05:55:00,